sensor_id;sensor_type;location;lat;lon;timestamp;pressure;altitude;pressure_sealevel;temperature;humidity
30744;BME280;17486;46.738;7.622;2023-06-26T00:00:23;95398.81;;;24.39;48.27
30744;BME280;17486;46.738;7.622;2023-06-26T00:02:48;95408.28;;;24.33;48.53
30744;BME280;17486;46.738;7.622;2023-06-26T00:05:14;95415.28;;;24.34;48.47
30744;BME280;17486;46.738;7.622;2023-06-26T00:07:39;95417.06;;;24.34;48.39
30744;BME280;17486;46.738;7.622;2023-06-26T00:10:05;95418.59;;;24.37;48.74
30744;BME280;17486;46.738;7.622;2023-06-26T00:12:31;95412.25;;;24.29;48.87
30744;BME280;17486;46.738;7.622;2023-06-26T00:14:57;95407.50;;;24.15;49.17
30744;BME280;17486;46.738;7.622;2023-06-26T00:17:23;95416.13;;;24.17;49.06
30744;BME280;17486;46.738;7.622;2023-06-26T00:19:49;95428.81;;;24.23;49.03
30744;BME280;17486;46.738;7.622;2023-06-26T00:22:15;95428.66;;;24.25;49.21
30744;BME280;17486;46.738;7.622;2023-06-26T00:24:40;95421.38;;;24.27;49.27
30744;BME280;17486;46.738;7.622;2023-06-26T00:27:06;95417.88;;;24.26;49.15
30744;BME280;17486;46.738;7.622;2023-06-26T00:29:31;95418.88;;;24.25;48.82
30744;BME280;17486;46.738;7.622;2023-06-26T00:31:57;95423.66;;;24.22;48.86
30744;BME280;17486;46.738;7.622;2023-06-26T00:34:22;95421.63;;;24.15;48.92
30744;BME280;17486;46.738;7.622;2023-06-26T00:36:47;95415.13;;;24.10;48.72
30744;BME280;17486;46.738;7.622;2023-06-26T00:39:13;95407.38;;;23.98;48.87
30744;BME280;17486;46.738;7.622;2023-06-26T00:41:39;95420.22;;;24.03;48.86
30744;BME280;17486;46.738;7.622;2023-06-26T00:44:05;95417.84;;;24.00;49.26
30744;BME280;17486;46.738;7.622;2023-06-26T00:46:31;95421.97;;;23.94;49.25
30744;BME280;17486;46.738;7.622;2023-06-26T00:48:58;95420.53;;;23.82;49.19
30744;BME280;17486;46.738;7.622;2023-06-26T00:51:24;95411.97;;;23.70;49.32
30744;BME280;17486;46.738;7.622;2023-06-26T00:53:50;95424.41;;;23.70;49.61
30744;BME280;17486;46.738;7.622;2023-06-26T00:56:17;95416.47;;;23.51;49.83
30744;BME280;17486;46.738;7.622;2023-06-26T00:58:42;95428.56;;;23.54;49.93
30744;BME280;17486;46.738;7.622;2023-06-26T01:01:08;95431.69;;;23.49;49.96
30744;BME280;17486;46.738;7.622;2023-06-26T01:03:34;95429.19;;;23.48;50.14
30744;BME280;17486;46.738;7.622;2023-06-26T01:05:59;95432.53;;;23.50;50.30
30744;BME280;17486;46.738;7.622;2023-06-26T01:08:26;95429.75;;;23.51;50.31
30744;BME280;17486;46.738;7.622;2023-06-26T01:10:52;95417.06;;;23.45;50.39
30744;BME280;17486;46.738;7.622;2023-06-26T01:13:18;95410.91;;;23.27;50.78
30744;BME280;17486;46.738;7.622;2023-06-26T01:15:44;95410.66;;;23.20;50.88
30744;BME280;17486;46.738;7.622;2023-06-26T01:18:11;95421.44;;;23.18;50.72
30744;BME280;17486;46.738;7.622;2023-06-26T01:20:38;95402.34;;;23.15;50.77
30744;BME280;17486;46.738;7.622;2023-06-26T01:23:33;95439.66;;;23.31;50.77
30744;BME280;17486;46.738;7.622;2023-06-26T01:28:34;95431.47;;;23.43;50.61
30744;BME280;17486;46.738;7.622;2023-06-26T01:31:02;95407.78;;;23.31;50.55
30744;BME280;17486;46.738;7.622;2023-06-26T01:33:29;95412.13;;;23.32;50.53
30744;BME280;17486;46.738;7.622;2023-06-26T01:35:55;95422.81;;;23.41;50.33
30744;BME280;17486;46.738;7.622;2023-06-26T01:38:21;95428.81;;;23.43;50.36
30744;BME280;17486;46.738;7.622;2023-06-26T01:40:48;95420.78;;;23.34;50.39
30744;BME280;17486;46.738;7.622;2023-06-26T01:43:28;95425.78;;;23.38;50.49
30744;BME280;17486;46.738;7.622;2023-06-26T01:46:00;95430.22;;;23.37;50.27
30744;BME280;17486;46.738;7.622;2023-06-26T01:48:30;95428.47;;;23.28;50.25
30744;BME280;17486;46.738;7.622;2023-06-26T01:50:58;95424.94;;;23.09;50.47
30744;BME280;17486;46.738;7.622;2023-06-26T01:53:25;95431.22;;;23.08;50.63
30744;BME280;17486;46.738;7.622;2023-06-26T01:56:01;95415.31;;;22.90;50.95
30744;BME280;17486;46.738;7.622;2023-06-26T01:58:31;95426.75;;;22.91;51.02
30744;BME280;17486;46.738;7.622;2023-06-26T02:00:59;95417.09;;;22.90;51.03
30744;BME280;17486;46.738;7.622;2023-06-26T02:03:25;95417.81;;;22.92;51.02
30744;BME280;17486;46.738;7.622;2023-06-26T02:05:50;95434.25;;;22.95;50.76
30744;BME280;17486;46.738;7.622;2023-06-26T02:08:16;95401.53;;;22.77;50.55
30744;BME280;17486;46.738;7.622;2023-06-26T02:10:42;95337.72;;;22.32;50.19
30744;BME280;17486;46.738;7.622;2023-06-26T02:13:07;95413.97;;;22.76;50.37
30744;BME280;17486;46.738;7.622;2023-06-26T02:15:32;95436.13;;;22.85;49.86
30744;BME280;17486;46.738;7.622;2023-06-26T02:17:58;95427.47;;;22.83;49.99
30744;BME280;17486;46.738;7.622;2023-06-26T02:20:23;95427.69;;;22.72;50.16
30744;BME280;17486;46.738;7.622;2023-06-26T02:22:48;95378.38;;;22.51;49.97
30744;BME280;17486;46.738;7.622;2023-06-26T02:25:14;95432.22;;;22.79;49.83
30744;BME280;17486;46.738;7.622;2023-06-26T02:27:39;95430.44;;;22.80;50.00
30744;BME280;17486;46.738;7.622;2023-06-26T02:30:06;95412.44;;;22.74;49.80
30744;BME280;17486;46.738;7.622;2023-06-26T02:32:31;95429.72;;;22.78;49.68
30744;BME280;17486;46.738;7.622;2023-06-26T02:34:56;95420.72;;;22.71;49.17
30744;BME280;17486;46.738;7.622;2023-06-26T02:37:22;95431.00;;;22.74;48.65
30744;BME280;17486;46.738;7.622;2023-06-26T02:39:47;95401.63;;;22.57;47.83
30744;BME280;17486;46.738;7.622;2023-06-26T02:42:13;95433.50;;;22.75;48.11
30744;BME280;17486;46.738;7.622;2023-06-26T02:44:38;95429.06;;;22.76;48.10
30744;BME280;17486;46.738;7.622;2023-06-26T02:47:04;95416.41;;;22.60;47.90
30744;BME280;17486;46.738;7.622;2023-06-26T02:49:30;95360.03;;;22.30;48.12
30744;BME280;17486;46.738;7.622;2023-06-26T02:51:57;95434.53;;;22.64;48.00
30744;BME280;17486;46.738;7.622;2023-06-26T02:54:25;95425.63;;;22.65;47.97
30744;BME280;17486;46.738;7.622;2023-06-26T02:56:51;95420.88;;;22.59;48.05
30744;BME280;17486;46.738;7.622;2023-06-26T02:59:17;95433.56;;;22.65;47.97
30744;BME280;17486;46.738;7.622;2023-06-26T03:01:42;95436.38;;;22.64;47.95
30744;BME280;17486;46.738;7.622;2023-06-26T03:04:08;95425.50;;;22.57;47.96
30744;BME280;17486;46.738;7.622;2023-06-26T03:06:34;95434.03;;;22.51;47.94
30744;BME280;17486;46.738;7.622;2023-06-26T03:08:59;95430.44;;;22.42;47.60
30744;BME280;17486;46.738;7.622;2023-06-26T03:11:24;95434.22;;;22.40;47.71
30744;BME280;17486;46.738;7.622;2023-06-26T03:13:50;95426.25;;;22.40;47.87
30744;BME280;17486;46.738;7.622;2023-06-26T03:16:15;95433.25;;;22.41;47.68
30744;BME280;17486;46.738;7.622;2023-06-26T03:18:41;95441.34;;;22.39;47.51
30744;BME280;17486;46.738;7.622;2023-06-26T03:21:06;95449.28;;;22.39;47.51
30744;BME280;17486;46.738;7.622;2023-06-26T03:23:31;95441.50;;;22.38;47.34
30744;BME280;17486;46.738;7.622;2023-06-26T03:25:57;95440.91;;;22.34;47.48
30744;BME280;17486;46.738;7.622;2023-06-26T03:28:22;95449.00;;;22.32;47.30
30744;BME280;17486;46.738;7.622;2023-06-26T03:30:47;95447.59;;;22.28;47.33
30744;BME280;17486;46.738;7.622;2023-06-26T03:33:13;95446.91;;;22.26;47.32
30744;BME280;17486;46.738;7.622;2023-06-26T03:35:38;95442.88;;;22.22;47.20
30744;BME280;17486;46.738;7.622;2023-06-26T03:38:04;95442.47;;;22.17;46.86
30744;BME280;17486;46.738;7.622;2023-06-26T03:40:30;95452.38;;;22.15;46.70
30744;BME280;17486;46.738;7.622;2023-06-26T03:42:55;95443.75;;;22.03;46.59
30744;BME280;17486;46.738;7.622;2023-06-26T03:45:21;95438.19;;;21.96;46.65
30744;BME280;17486;46.738;7.622;2023-06-26T03:47:46;95437.47;;;21.94;46.47
30744;BME280;17486;46.738;7.622;2023-06-26T03:50:14;95447.09;;;22.05;46.53
30744;BME280;17486;46.738;7.622;2023-06-26T03:52:39;95453.94;;;22.08;46.49
30744;BME280;17486;46.738;7.622;2023-06-26T03:55:05;95449.16;;;22.11;46.09
30744;BME280;17486;46.738;7.622;2023-06-26T03:57:31;95441.22;;;22.11;45.94
30744;BME280;17486;46.738;7.622;2023-06-26T03:59:56;95440.28;;;22.02;46.20
30744;BME280;17486;46.738;7.622;2023-06-26T04:02:21;95457.53;;;22.16;46.34
30744;BME280;17486;46.738;7.622;2023-06-26T04:04:48;95437.75;;;22.11;46.30
30744;BME280;17486;46.738;7.622;2023-06-26T04:07:13;95453.75;;;22.19;46.18
30744;BME280;17486;46.738;7.622;2023-06-26T04:09:38;95446.81;;;22.18;46.12
30744;BME280;17486;46.738;7.622;2023-06-26T04:12:05;95459.34;;;22.16;46.13
30744;BME280;17486;46.738;7.622;2023-06-26T04:14:30;95426.06;;;21.94;46.14
30744;BME280;17486;46.738;7.622;2023-06-26T04:16:56;95454.19;;;22.14;46.05
30744;BME280;17486;46.738;7.622;2023-06-26T04:19:23;95464.34;;;22.19;46.16
30744;BME280;17486;46.738;7.622;2023-06-26T04:21:48;95466.72;;;22.22;46.74
30744;BME280;17486;46.738;7.622;2023-06-26T04:24:13;95458.38;;;22.17;46.43
30744;BME280;17486;46.738;7.622;2023-06-26T04:26:39;95470.22;;;22.23;45.89
30744;BME280;17486;46.738;7.622;2023-06-26T04:29:06;95467.00;;;22.19;45.73
30744;BME280;17486;46.738;7.622;2023-06-26T04:31:31;95469.22;;;22.24;46.33
30744;BME280;17486;46.738;7.622;2023-06-26T04:33:57;95474.09;;;22.28;47.13
30744;BME280;17486;46.738;7.622;2023-06-26T04:36:24;95476.16;;;22.34;46.68
30744;BME280;17486;46.738;7.622;2023-06-26T04:38:56;95471.03;;;22.33;46.66
30744;BME280;17486;46.738;7.622;2023-06-26T04:41:21;95479.97;;;22.42;48.40
30744;BME280;17486;46.738;7.622;2023-06-26T04:43:47;95473.66;;;22.43;50.18
30744;BME280;17486;46.738;7.622;2023-06-26T04:46:12;95462.78;;;22.46;50.06
30744;BME280;17486;46.738;7.622;2023-06-26T04:48:37;95466.56;;;22.43;50.25
30744;BME280;17486;46.738;7.622;2023-06-26T04:51:03;95476.25;;;22.62;51.42
30744;BME280;17486;46.738;7.622;2023-06-26T04:53:28;95487.97;;;22.69;51.85
30744;BME280;17486;46.738;7.622;2023-06-26T04:55:54;95459.53;;;22.62;51.95
30744;BME280;17486;46.738;7.622;2023-06-26T04:58:19;95469.81;;;22.75;52.84
30744;BME280;17486;46.738;7.622;2023-06-26T05:00:45;95469.75;;;22.84;53.05
30744;BME280;17486;46.738;7.622;2023-06-26T05:03:16;95477.38;;;22.97;53.35
30744;BME280;17486;46.738;7.622;2023-06-26T05:05:42;95477.47;;;23.06;53.31
30744;BME280;17486;46.738;7.622;2023-06-26T05:08:21;95472.97;;;23.16;53.20
30744;BME280;17486;46.738;7.622;2023-06-26T05:10:47;95455.00;;;23.10;49.78
30744;BME280;17486;46.738;7.622;2023-06-26T05:13:13;95465.59;;;23.10;47.94
30744;BME280;17486;46.738;7.622;2023-06-26T05:15:41;95452.03;;;23.13;49.58
30744;BME280;17486;46.738;7.622;2023-06-26T05:18:07;95474.53;;;23.37;50.80
30744;BME280;17486;46.738;7.622;2023-06-26T05:20:34;95472.66;;;23.47;51.30
30744;BME280;17486;46.738;7.622;2023-06-26T05:23:03;95458.78;;;23.53;51.04
30744;BME280;17486;46.738;7.622;2023-06-26T05:25:30;95471.53;;;23.49;51.70
30744;BME280;17486;46.738;7.622;2023-06-26T05:27:56;95469.09;;;23.56;51.65
30744;BME280;17486;46.738;7.622;2023-06-26T05:30:23;95460.44;;;23.54;51.79
30744;BME280;17486;46.738;7.622;2023-06-26T05:32:51;95468.66;;;23.61;51.74
30744;BME280;17486;46.738;7.622;2023-06-26T05:35:18;95459.84;;;23.60;52.34
30744;BME280;17486;46.738;7.622;2023-06-26T05:37:43;95459.56;;;23.63;51.80
30744;BME280;17486;46.738;7.622;2023-06-26T05:40:09;95468.88;;;23.67;50.78
30744;BME280;17486;46.738;7.622;2023-06-26T05:42:35;95456.63;;;23.57;50.70
30744;BME280;17486;46.738;7.622;2023-06-26T05:45:01;95463.19;;;23.62;51.42
30744;BME280;17486;46.738;7.622;2023-06-26T05:47:26;95454.91;;;23.65;51.12
30744;BME280;17486;46.738;7.622;2023-06-26T05:49:51;95450.94;;;23.70;51.59
30744;BME280;17486;46.738;7.622;2023-06-26T05:52:17;95458.00;;;23.79;51.55
30744;BME280;17486;46.738;7.622;2023-06-26T05:54:43;95467.88;;;23.87;51.95
30744;BME280;17486;46.738;7.622;2023-06-26T05:57:08;95454.09;;;23.83;51.92
30744;BME280;17486;46.738;7.622;2023-06-26T05:59:36;95470.66;;;23.95;50.82
30744;BME280;17486;46.738;7.622;2023-06-26T06:02:02;95466.53;;;24.00;50.47
30744;BME280;17486;46.738;7.622;2023-06-26T06:04:27;95478.19;;;24.08;50.29
30744;BME280;17486;46.738;7.622;2023-06-26T06:06:54;95470.91;;;24.10;50.72
30744;BME280;17486;46.738;7.622;2023-06-26T06:09:19;95464.84;;;23.99;51.42
30744;BME280;17486;46.738;7.622;2023-06-26T06:11:44;95475.84;;;24.05;51.71
30744;BME280;17486;46.738;7.622;2023-06-26T06:14:10;95457.88;;;23.98;51.76
30744;BME280;17486;46.738;7.622;2023-06-26T06:16:35;95465.75;;;24.08;51.44
30744;BME280;17486;46.738;7.622;2023-06-26T06:19:00;95478.78;;;24.20;50.55
30744;BME280;17486;46.738;7.622;2023-06-26T06:21:28;95477.97;;;24.19;50.39
30744;BME280;17486;46.738;7.622;2023-06-26T06:23:53;95480.81;;;24.26;50.45
30744;BME280;17486;46.738;7.622;2023-06-26T06:26:19;95484.47;;;24.25;50.66
30744;BME280;17486;46.738;7.622;2023-06-26T06:28:44;95483.69;;;24.32;50.56
30744;BME280;17486;46.738;7.622;2023-06-26T06:31:10;95467.91;;;24.31;50.50
30744;BME280;17486;46.738;7.622;2023-06-26T06:33:35;95476.47;;;24.43;49.96
30744;BME280;17486;46.738;7.622;2023-06-26T06:36:00;95478.34;;;24.50;49.63
30744;BME280;17486;46.738;7.622;2023-06-26T06:38:26;95476.56;;;24.59;49.71
30744;BME280;17486;46.738;7.622;2023-06-26T06:40:51;95477.88;;;24.55;50.07
30744;BME280;17486;46.738;7.622;2023-06-26T06:43:16;95451.34;;;24.37;50.74
30744;BME280;17486;46.738;7.622;2023-06-26T06:45:42;95472.56;;;24.55;50.19
30744;BME280;17486;46.738;7.622;2023-06-26T06:48:07;95455.38;;;24.49;50.15
30744;BME280;17486;46.738;7.622;2023-06-26T06:50:33;95464.66;;;24.63;50.58
30744;BME280;17486;46.738;7.622;2023-06-26T06:52:58;95473.53;;;24.72;50.60
30744;BME280;17486;46.738;7.622;2023-06-26T06:55:24;95472.31;;;24.66;50.80
30744;BME280;17486;46.738;7.622;2023-06-26T06:57:51;95474.31;;;24.64;51.69
30744;BME280;17486;46.738;7.622;2023-06-26T07:00:16;95465.31;;;24.65;51.81
30744;BME280;17486;46.738;7.622;2023-06-26T07:02:43;95469.53;;;24.76;51.51
30744;BME280;17486;46.738;7.622;2023-06-26T07:05:09;95456.72;;;24.72;51.49
30744;BME280;17486;46.738;7.622;2023-06-26T07:07:36;95450.94;;;24.76;50.91
30744;BME280;17486;46.738;7.622;2023-06-26T07:10:10;95469.25;;;24.88;50.77
30744;BME280;17486;46.738;7.622;2023-06-26T07:12:36;95449.63;;;24.89;50.56
30744;BME280;17486;46.738;7.622;2023-06-26T07:15:03;95463.03;;;25.05;50.17
30744;BME280;17486;46.738;7.622;2023-06-26T07:17:30;95439.38;;;25.02;50.07
30744;BME280;17486;46.738;7.622;2023-06-26T07:19:55;95444.56;;;25.04;49.10
30744;BME280;17486;46.738;7.622;2023-06-26T07:22:21;95456.03;;;25.12;48.95
30744;BME280;17486;46.738;7.622;2023-06-26T07:24:47;95452.06;;;25.16;49.09
30744;BME280;17486;46.738;7.622;2023-06-26T07:27:16;95451.06;;;25.17;50.16
30744;BME280;17486;46.738;7.622;2023-06-26T07:29:42;95449.41;;;25.16;50.59
30744;BME280;17486;46.738;7.622;2023-06-26T07:32:07;95448.25;;;25.19;50.57
30744;BME280;17486;46.738;7.622;2023-06-26T07:34:33;95438.75;;;25.16;50.65
30744;BME280;17486;46.738;7.622;2023-06-26T07:36:59;95443.94;;;25.18;50.99
30744;BME280;17486;46.738;7.622;2023-06-26T07:39:24;95447.94;;;25.22;50.68
30744;BME280;17486;46.738;7.622;2023-06-26T07:41:49;95436.31;;;25.23;50.12
30744;BME280;17486;46.738;7.622;2023-06-26T07:44:15;95441.81;;;25.30;49.80
30744;BME280;17486;46.738;7.622;2023-06-26T07:46:41;95442.19;;;25.35;48.80
30744;BME280;17486;46.738;7.622;2023-06-26T07:49:06;95435.88;;;25.44;48.56
30744;BME280;17486;46.738;7.622;2023-06-26T07:51:32;95443.34;;;25.41;47.40
30744;BME280;17486;46.738;7.622;2023-06-26T07:53:57;95432.88;;;25.47;47.14
30744;BME280;17486;46.738;7.622;2023-06-26T07:56:22;95422.38;;;25.46;46.57
30744;BME280;17486;46.738;7.622;2023-06-26T07:58:48;95432.41;;;25.60;46.87
30744;BME280;17486;46.738;7.622;2023-06-26T08:01:13;95417.22;;;25.53;47.13
30744;BME280;17486;46.738;7.622;2023-06-26T08:03:39;95417.75;;;25.64;46.77
30744;BME280;17486;46.738;7.622;2023-06-26T08:06:05;95407.09;;;25.64;46.37
30744;BME280;17486;46.738;7.622;2023-06-26T08:08:31;95427.41;;;25.82;45.62
30744;BME280;17486;46.738;7.622;2023-06-26T08:10:56;95424.25;;;25.87;44.94
30744;BME280;17486;46.738;7.622;2023-06-26T08:13:22;95421.41;;;25.88;44.27
30744;BME280;17486;46.738;7.622;2023-06-26T08:15:47;95424.75;;;25.98;44.20
30744;BME280;17486;46.738;7.622;2023-06-26T08:18:12;95417.09;;;26.04;44.24
30744;BME280;17486;46.738;7.622;2023-06-26T08:20:38;95404.47;;;26.06;44.24
30744;BME280;17486;46.738;7.622;2023-06-26T08:23:04;95413.91;;;26.25;43.72
30744;BME280;17486;46.738;7.622;2023-06-26T08:25:29;95409.72;;;26.30;43.62
30744;BME280;17486;46.738;7.622;2023-06-26T08:27:55;95409.72;;;26.30;43.86
30744;BME280;17486;46.738;7.622;2023-06-26T08:30:21;95419.03;;;26.43;44.11
30744;BME280;17486;46.738;7.622;2023-06-26T08:32:47;95409.38;;;26.42;44.04
30744;BME280;17486;46.738;7.622;2023-06-26T08:35:12;95418.00;;;26.52;43.64
30744;BME280;17486;46.738;7.622;2023-06-26T08:37:38;95401.53;;;26.40;42.37
30744;BME280;17486;46.738;7.622;2023-06-26T08:40:04;95402.84;;;26.53;42.35
30744;BME280;17486;46.738;7.622;2023-06-26T08:42:29;95408.03;;;26.54;42.23
30744;BME280;17486;46.738;7.622;2023-06-26T08:44:55;95415.31;;;26.69;41.93
30744;BME280;17486;46.738;7.622;2023-06-26T08:47:21;95403.78;;;26.68;41.82
30744;BME280;17486;46.738;7.622;2023-06-26T08:49:53;95417.41;;;26.90;42.63
30744;BME280;17486;46.738;7.622;2023-06-26T08:52:28;95409.19;;;27.00;41.66
30744;BME280;17486;46.738;7.622;2023-06-26T08:54:58;95396.69;;;27.00;42.14
30744;BME280;17486;46.738;7.622;2023-06-26T08:57:25;95419.06;;;27.22;41.90
30744;BME280;17486;46.738;7.622;2023-06-26T08:59:51;95415.38;;;27.32;40.46
30744;BME280;17486;46.738;7.622;2023-06-26T09:02:17;95408.00;;;27.34;39.61
30744;BME280;17486;46.738;7.622;2023-06-26T09:04:42;95412.31;;;27.43;40.06
30744;BME280;17486;46.738;7.622;2023-06-26T09:07:08;95413.28;;;27.50;40.19
30744;BME280;17486;46.738;7.622;2023-06-26T09:09:33;95422.72;;;27.61;40.17
30744;BME280;17486;46.738;7.622;2023-06-26T09:11:58;95404.84;;;27.61;38.59
30744;BME280;17486;46.738;7.622;2023-06-26T09:14:24;95420.66;;;27.71;39.25
30744;BME280;17486;46.738;7.622;2023-06-26T09:16:50;95410.44;;;27.75;38.53
30744;BME280;17486;46.738;7.622;2023-06-26T09:19:15;95415.63;;;27.91;38.59
30744;BME280;17486;46.738;7.622;2023-06-26T09:21:42;95405.47;;;28.10;38.28
30744;BME280;17486;46.738;7.622;2023-06-26T09:24:08;95409.66;;;28.27;38.37
30744;BME280;17486;46.738;7.622;2023-06-26T09:26:35;95409.31;;;28.45;37.92
30744;BME280;17486;46.738;7.622;2023-06-26T09:29:02;95416.13;;;28.63;37.19
30744;BME280;17486;46.738;7.622;2023-06-26T09:31:27;95391.25;;;28.62;36.99
30744;BME280;17486;46.738;7.622;2023-06-26T09:33:58;95409.50;;;28.74;37.38
30744;BME280;17486;46.738;7.622;2023-06-26T09:36:27;95404.72;;;28.84;37.42
30744;BME280;17486;46.738;7.622;2023-06-26T09:38:53;95409.13;;;28.92;36.99
30744;BME280;17486;46.738;7.622;2023-06-26T09:41:18;95404.88;;;28.98;37.00
30744;BME280;17486;46.738;7.622;2023-06-26T09:43:51;95401.00;;;29.00;36.86
30744;BME280;17486;46.738;7.622;2023-06-26T09:46:26;95397.19;;;29.09;37.61
30744;BME280;17486;46.738;7.622;2023-06-26T09:49:02;95404.28;;;29.17;37.66
30744;BME280;17486;46.738;7.622;2023-06-26T09:51:32;95399.09;;;29.31;37.58
30744;BME280;17486;46.738;7.622;2023-06-26T09:53:59;95403.03;;;29.50;37.23
30744;BME280;17486;46.738;7.622;2023-06-26T09:56:26;95392.06;;;29.66;36.37
30744;BME280;17486;46.738;7.622;2023-06-26T09:58:57;95370.94;;;29.78;36.74
30744;BME280;17486;46.738;7.622;2023-06-26T10:01:24;95391.59;;;30.06;36.11
30744;BME280;17486;46.738;7.622;2023-06-26T10:03:49;95380.91;;;30.13;35.16
30744;BME280;17486;46.738;7.622;2023-06-26T10:06:19;95377.41;;;30.12;34.80
30744;BME280;17486;46.738;7.622;2023-06-26T10:08:48;95366.25;;;30.08;34.49
30744;BME280;17486;46.738;7.622;2023-06-26T10:11:16;95379.94;;;30.20;34.62
30744;BME280;17486;46.738;7.622;2023-06-26T10:13:43;95383.88;;;30.24;34.64
30744;BME280;17486;46.738;7.622;2023-06-26T10:16:12;95364.66;;;30.21;34.03
30744;BME280;17486;46.738;7.622;2023-06-26T10:18:39;95375.69;;;30.33;33.81
30744;BME280;17486;46.738;7.622;2023-06-26T10:21:05;95369.50;;;30.32;33.57
30744;BME280;17486;46.738;7.622;2023-06-26T10:23:31;95353.19;;;30.34;33.96
30744;BME280;17486;46.738;7.622;2023-06-26T10:26:00;95372.59;;;30.64;33.35
30744;BME280;17486;46.738;7.622;2023-06-26T10:28:28;95360.25;;;30.70;33.54
30744;BME280;17486;46.738;7.622;2023-06-26T10:30:55;95365.50;;;30.91;33.33
30744;BME280;17486;46.738;7.622;2023-06-26T10:33:22;95376.97;;;31.14;33.27
30744;BME280;17486;46.738;7.622;2023-06-26T10:35:48;95373.03;;;31.16;33.13
30744;BME280;17486;46.738;7.622;2023-06-26T10:38:14;95364.75;;;31.11;32.60
30744;BME280;17486;46.738;7.622;2023-06-26T10:40:42;95369.53;;;31.16;33.18
30744;BME280;17486;46.738;7.622;2023-06-26T10:43:09;95375.34;;;31.19;32.90
30744;BME280;17486;46.738;7.622;2023-06-26T10:45:35;95383.00;;;31.22;31.75
30744;BME280;17486;46.738;7.622;2023-06-26T10:48:04;95372.25;;;31.22;31.88
30744;BME280;17486;46.738;7.622;2023-06-26T10:50:32;95370.00;;;31.26;32.07
30744;BME280;17486;46.738;7.622;2023-06-26T10:53:21;95371.63;;;31.27;31.85
30744;BME280;17486;46.738;7.622;2023-06-26T10:56:01;95369.78;;;31.28;30.96
30744;BME280;17486;46.738;7.622;2023-06-26T10:58:28;95374.94;;;31.29;31.37
30744;BME280;17486;46.738;7.622;2023-06-26T11:04:04;95374.59;;;31.46;31.65
30744;BME280;17486;46.738;7.622;2023-06-26T11:06:30;95361.53;;;31.49;30.67
30744;BME280;17486;46.738;7.622;2023-06-26T11:14:17;95370.03;;;31.59;31.17
30744;BME280;17486;46.738;7.622;2023-06-26T11:16:43;95360.09;;;31.47;30.74
30744;BME280;17486;46.738;7.622;2023-06-26T11:19:09;95360.50;;;31.37;30.91
30744;BME280;17486;46.738;7.622;2023-06-26T11:21:37;95370.81;;;31.27;31.40
30744;BME280;17486;46.738;7.622;2023-06-26T11:24:04;95372.47;;;31.28;31.45
30744;BME280;17486;46.738;7.622;2023-06-26T11:26:38;95363.38;;;31.29;31.35
30744;BME280;17486;46.738;7.622;2023-06-26T11:29:03;95351.59;;;31.36;30.77
30744;BME280;17486;46.738;7.622;2023-06-26T11:31:34;95367.16;;;31.61;31.66
30744;BME280;17486;46.738;7.622;2023-06-26T11:34:04;95348.38;;;31.74;30.33
30744;BME280;17486;46.738;7.622;2023-06-26T11:36:31;95376.50;;;31.99;30.44
30744;BME280;17486;46.738;7.622;2023-06-26T11:39:00;95376.72;;;32.04;29.40
30744;BME280;17486;46.738;7.622;2023-06-26T11:41:30;95375.28;;;31.95;28.96
30744;BME280;17486;46.738;7.622;2023-06-26T11:43:59;95379.22;;;31.92;29.59
30744;BME280;17486;46.738;7.622;2023-06-26T11:46:25;95369.69;;;31.83;29.85
30744;BME280;17486;46.738;7.622;2023-06-26T11:48:50;95376.09;;;31.75;29.98
30744;BME280;17486;46.738;7.622;2023-06-26T11:51:17;95373.41;;;31.68;30.37
30744;BME280;17486;46.738;7.622;2023-06-26T11:53:43;95371.31;;;31.64;30.35
30744;BME280;17486;46.738;7.622;2023-06-26T11:58:35;95382.03;;;31.57;30.41
30744;BME280;17486;46.738;7.622;2023-06-26T12:01:00;95374.81;;;31.57;31.12
30744;BME280;17486;46.738;7.622;2023-06-26T12:03:26;95354.56;;;31.62;30.67
30744;BME280;17486;46.738;7.622;2023-06-26T12:05:51;95370.50;;;31.83;31.07
30744;BME280;17486;46.738;7.622;2023-06-26T12:08:17;95358.94;;;31.83;30.39
30744;BME280;17486;46.738;7.622;2023-06-26T12:10:43;95365.53;;;32.00;30.72
30744;BME280;17486;46.738;7.622;2023-06-26T12:13:10;95355.41;;;32.09;30.76
30744;BME280;17486;46.738;7.622;2023-06-26T12:15:35;95379.63;;;32.22;30.35
30744;BME280;17486;46.738;7.622;2023-06-26T12:18:08;95355.59;;;32.14;30.03
30744;BME280;17486;46.738;7.622;2023-06-26T12:20:33;95362.88;;;32.20;30.66
30744;BME280;17486;46.738;7.622;2023-06-26T12:22:58;95338.25;;;32.03;30.51
30744;BME280;17486;46.738;7.622;2023-06-26T12:25:24;95351.47;;;32.12;30.33
30744;BME280;17486;46.738;7.622;2023-06-26T12:27:49;95349.81;;;32.11;29.93
30744;BME280;17486;46.738;7.622;2023-06-26T12:30:15;95348.16;;;32.10;30.29
30744;BME280;17486;46.738;7.622;2023-06-26T12:32:44;95356.41;;;32.15;30.42
30744;BME280;17486;46.738;7.622;2023-06-26T12:35:10;95351.28;;;32.20;30.09
30744;BME280;17486;46.738;7.622;2023-06-26T12:37:38;95339.47;;;32.28;30.63
30744;BME280;17486;46.738;7.622;2023-06-26T12:40:19;95359.69;;;32.50;29.85
30744;BME280;17486;46.738;7.622;2023-06-26T12:42:47;95357.63;;;32.59;30.14
30744;BME280;17486;46.738;7.622;2023-06-26T12:45:13;95336.47;;;32.63;30.41
30744;BME280;17486;46.738;7.622;2023-06-26T12:47:39;95350.97;;;32.75;30.54
30744;BME280;17486;46.738;7.622;2023-06-26T12:50:06;95349.50;;;32.72;30.05
30744;BME280;17486;46.738;7.622;2023-06-26T12:52:32;95352.63;;;32.63;29.85
30744;BME280;17486;46.738;7.622;2023-06-26T12:54:58;95355.59;;;32.48;29.59
30744;BME280;17486;46.738;7.622;2023-06-26T12:57:23;95349.81;;;32.31;29.72
30744;BME280;17486;46.738;7.622;2023-06-26T12:59:49;95360.16;;;32.14;30.36
30744;BME280;17486;46.738;7.622;2023-06-26T13:02:14;95355.19;;;32.04;30.61
30744;BME280;17486;46.738;7.622;2023-06-26T13:04:40;95357.06;;;31.97;31.21
30744;BME280;17486;46.738;7.622;2023-06-26T13:07:09;95343.81;;;31.88;31.06
30744;BME280;17486;46.738;7.622;2023-06-26T13:09:34;95365.13;;;32.03;31.74